createdAt,value
2024-01-11T00:01:26.265Z,98706.69
2024-01-11T00:03:54.703Z,98705.00
2024-01-11T00:06:24.676Z,98667.66
2024-01-11T00:08:53.221Z,98706.09
2024-01-11T00:11:21.624Z,98702.44
2024-01-11T00:13:50.028Z,98681.41
2024-01-11T00:16:18.350Z,98700.81
2024-01-11T00:18:46.951Z,98696.81
2024-01-11T00:21:15.544Z,98674.75
2024-01-11T00:23:45.440Z,98699.88
2024-01-11T00:26:15.310Z,98682.69
2024-01-11T00:28:43.664Z,98702.59
2024-01-11T00:31:12.891Z,98693.06
2024-01-11T00:33:42.176Z,98694.34
2024-01-11T00:36:10.714Z,98665.97
2024-01-11T00:38:39.293Z,98690.22
2024-01-11T00:41:09.210Z,98690.16
2024-01-11T00:43:37.588Z,98687.06
2024-01-11T00:46:06.164Z,98691.09
2024-01-11T00:48:34.694Z,98644.09
2024-01-11T00:51:03.173Z,98612.31
2024-01-11T00:53:32.655Z,98700.66
2024-01-11T00:56:01.548Z,98664.03
2024-01-11T00:58:31.383Z,98712.22
2024-01-11T01:00:59.731Z,98699.53
2024-01-11T01:03:28.130Z,98697.00
2024-01-11T01:05:56.680Z,98706.28
2024-01-11T01:08:25.104Z,98695.97
2024-01-11T01:10:53.488Z,98700.66
2024-01-11T01:13:21.764Z,98675.56
2024-01-11T01:15:51.548Z,98706.09
2024-01-11T01:18:20.007Z,98701.16
2024-01-11T01:20:48.421Z,98698.78
2024-01-11T01:23:16.831Z,98685.31
2024-01-11T01:25:45.205Z,98696.53
2024-01-11T01:28:13.622Z,98701.25
2024-01-11T01:30:42.058Z,98701.00
2024-01-11T01:33:12.152Z,98698.78
2024-01-11T01:35:40.664Z,98702.22
2024-01-11T01:38:09.019Z,98705.53
2024-01-11T01:40:37.313Z,98703.50
2024-01-11T01:43:10.206Z,98695.31
2024-01-11T01:45:38.568Z,98696.06
2024-01-11T01:48:07.648Z,98698.41
2024-01-11T01:50:37.715Z,98689.19
2024-01-11T01:53:06.485Z,98694.78
2024-01-11T01:55:35.245Z,98689.84
2024-01-11T01:58:05.676Z,98691.22
2024-01-11T02:00:34.269Z,98671.19
2024-01-11T02:03:03.149Z,98684.06
2024-01-11T02:05:31.670Z,98670.47
2024-01-11T02:08:06.192Z,98678.50
2024-01-11T02:10:36.828Z,98593.06
2024-01-11T02:13:08.298Z,98664.09
2024-01-11T02:15:38.339Z,98655.09
2024-01-11T02:18:07.182Z,98657.78
2024-01-11T02:20:35.857Z,98637.56
2024-01-11T02:23:10.733Z,98653.50
2024-01-11T02:25:40.562Z,98653.28
2024-01-11T02:28:09.647Z,98634.69
2024-01-11T02:30:37.966Z,98666.31
2024-01-11T02:33:07.747Z,98667.28
2024-01-11T02:35:38.734Z,98659.03
2024-01-11T02:38:08.861Z,98659.91
2024-01-11T02:40:39.606Z,98626.09
2024-01-11T02:43:11.797Z,98652.47
2024-01-11T02:45:40.458Z,98649.63
2024-01-11T02:48:09.073Z,98645.78
2024-01-11T02:50:37.643Z,98635.44
2024-01-11T02:53:06.227Z,98649.91
2024-01-11T02:55:34.509Z,98647.41
2024-01-11T02:58:04.358Z,98649.84
2024-01-11T03:00:32.634Z,98638.97
2024-01-11T03:03:00.952Z,98649.09
2024-01-11T03:05:29.442Z,98647.53
2024-01-11T03:07:57.915Z,98652.00
2024-01-11T03:10:26.239Z,98651.94
2024-01-11T03:12:54.585Z,98655.16
2024-01-11T03:15:24.443Z,98648.00
2024-01-11T03:17:52.986Z,98641.06
2024-01-11T03:20:25.891Z,98643.75
2024-01-11T03:22:54.392Z,98643.75
2024-01-11T03:25:22.837Z,98640.31
2024-01-11T03:27:51.324Z,98639.28
2024-01-11T03:30:19.917Z,98641.69
2024-01-11T03:32:50.075Z,98624.38
2024-01-11T03:35:18.607Z,98635.63
2024-01-11T03:37:47.153Z,98626.88
2024-01-11T03:40:15.473Z,98598.38
2024-01-11T03:42:45.242Z,98609.28
2024-01-11T03:45:13.524Z,98524.59
2024-01-11T03:47:43.438Z,98614.97
2024-01-11T03:50:13.574Z,98579.84
2024-01-11T03:52:42.240Z,98602.53
2024-01-11T03:55:10.995Z,98588.91
2024-01-11T03:57:39.252Z,98602.91
2024-01-11T04:00:11.664Z,98603.66
2024-01-11T04:02:40.566Z,98600.06
2024-01-11T04:05:09.871Z,98557.53
2024-01-11T04:07:39.714Z,98609.28
2024-01-11T04:10:10.494Z,98599.56
2024-01-11T04:12:39.218Z,98612.66
2024-01-11T04:15:08.413Z,98605.69
2024-01-11T04:17:36.901Z,98598.47
2024-01-11T04:20:05.969Z,98578.84
2024-01-11T04:22:34.297Z,98594.94
2024-01-11T04:25:04.060Z,98587.66
2024-01-11T04:27:32.390Z,98582.44
2024-01-11T04:30:00.962Z,98585.38
2024-01-11T04:32:29.414Z,98534.72
2024-01-11T04:34:58.061Z,98577.63
2024-01-11T04:37:26.423Z,98588.31
2024-01-11T04:39:54.776Z,98574.94
2024-01-11T04:42:24.539Z,98493.06
2024-01-11T04:44:53.139Z,98567.06
2024-01-11T04:47:21.660Z,98567.13
2024-01-11T04:49:49.956Z,98563.78
2024-01-11T04:52:18.406Z,98574.38
2024-01-11T04:54:46.645Z,98570.59
2024-01-11T04:57:14.897Z,98574.09
2024-01-11T04:59:44.740Z,98569.56
2024-01-11T05:02:13.085Z,98581.91
2024-01-11T05:04:41.445Z,98578.38
2024-01-11T05:07:09.723Z,98574.44
2024-01-11T05:09:38.005Z,98570.88
2024-01-11T05:12:07.217Z,98570.38
2024-01-11T05:14:35.554Z,98565.03
2024-01-11T05:17:05.599Z,98572.63
2024-01-11T05:19:34.010Z,98576.06
2024-01-11T05:22:02.356Z,98569.19
2024-01-11T05:24:30.674Z,98565.25
2024-01-11T05:26:59.270Z,98511.88
2024-01-11T05:29:27.764Z,98568.91
2024-01-11T05:31:56.230Z,98564.16
2024-01-11T05:34:26.905Z,98541.06
2024-01-11T05:36:55.189Z,98555.25
2024-01-11T05:39:23.570Z,98555.59
2024-01-11T05:41:51.877Z,98550.38
2024-01-11T05:44:20.168Z,98550.78
2024-01-11T05:46:48.563Z,98539.69
2024-01-11T05:49:16.997Z,98547.34
2024-01-11T05:51:46.876Z,98542.75
2024-01-11T05:54:15.181Z,98552.69
2024-01-11T05:56:43.592Z,98552.25
2024-01-11T05:59:12.046Z,98555.38
2024-01-11T06:01:43.977Z,98492.03
2024-01-11T06:04:12.308Z,98553.13
2024-01-11T06:06:40.676Z,98602.69
2024-01-11T06:09:11.381Z,98573.63
2024-01-11T06:11:39.834Z,98578.38
2024-01-11T06:14:08.247Z,98569.09
2024-01-11T06:16:36.787Z,98575.91
2024-01-11T06:19:05.251Z,98566.91
2024-01-11T06:21:33.638Z,98569.84
2024-01-11T06:24:02.059Z,98566.84
2024-01-11T06:26:31.925Z,98563.13
2024-01-11T06:29:00.324Z,98569.78
2024-01-11T06:31:28.647Z,98562.16
2024-01-11T06:33:56.999Z,98553.56
2024-01-11T06:36:25.289Z,98547.22
2024-01-11T06:38:53.665Z,98547.78
2024-01-11T06:41:21.954Z,98548.56
2024-01-11T06:43:51.735Z,98549.09
2024-01-11T06:46:22.693Z,98549.53
2024-01-11T06:48:51.618Z,98555.72
2024-01-11T06:51:23.536Z,98553.63
2024-01-11T06:53:52.139Z,98561.88
2024-01-11T06:56:22.150Z,98553.81
2024-01-11T06:58:52.027Z,98547.19
2024-01-11T07:01:20.694Z,98549.53
2024-01-11T07:03:49.368Z,98547.41
2024-01-11T07:06:18.092Z,98548.38
2024-01-11T07:08:46.645Z,98548.75
2024-01-11T07:11:15.143Z,98436.09
2024-01-11T07:13:43.843Z,98537.22
2024-01-11T07:16:16.326Z,98545.81
2024-01-11T07:18:44.996Z,98542.94
2024-01-11T07:21:13.364Z,98531.13
2024-01-11T07:23:41.813Z,98528.56
2024-01-11T07:26:10.330Z,98526.25
2024-01-11T07:28:38.705Z,98527.00
2024-01-11T07:31:07.284Z,98532.69
2024-01-11T07:33:37.291Z,98534.28
2024-01-11T07:36:06.405Z,98529.59
2024-01-11T07:38:35.059Z,98526.97
2024-01-11T07:41:03.562Z,98537.34
2024-01-11T07:43:41.576Z,98540.28
2024-01-11T07:46:17.672Z,98537.00
2024-01-11T07:48:47.485Z,98535.59
2024-01-11T07:51:15.829Z,98536.06
2024-01-11T07:53:44.163Z,98505.84
2024-01-11T07:56:12.455Z,98536.19
2024-01-11T07:58:40.784Z,98543.25
2024-01-11T08:01:09.227Z,98533.72
2024-01-11T08:03:37.652Z,98524.28
2024-01-11T08:06:08.896Z,98531.41
2024-01-11T08:08:37.708Z,98523.88
2024-01-11T08:11:06.227Z,98518.13
2024-01-11T08:13:35.965Z,98533.31
2024-01-11T08:16:05.768Z,98526.78
2024-01-11T08:18:34.207Z,98526.06
2024-01-11T08:21:02.594Z,98520.63
2024-01-11T08:23:32.962Z,98517.84
2024-01-11T08:26:01.354Z,98526.75
2024-01-11T08:28:29.724Z,98522.75
2024-01-11T08:30:58.159Z,98518.63
2024-01-11T08:33:27.032Z,98529.34
2024-01-11T08:35:55.397Z,98417.91
2024-01-11T08:38:23.776Z,98508.41
2024-01-11T08:40:53.528Z,98507.22
2024-01-11T08:43:21.750Z,98505.09
2024-01-11T08:45:50.091Z,98510.09
2024-01-11T08:48:18.819Z,98512.72
2024-01-11T08:50:47.360Z,98515.69
2024-01-11T08:53:16.880Z,98519.59
2024-01-11T08:55:46.832Z,98523.06
2024-01-11T08:58:16.909Z,98510.44
2024-01-11T09:00:45.449Z,98510.66
2024-01-11T09:03:15.364Z,98473.41
2024-01-11T09:05:43.912Z,98527.53
2024-01-11T09:08:12.426Z,98519.81
2024-01-11T09:10:42.791Z,98499.66
2024-01-11T09:13:13.336Z,98519.78
2024-01-11T09:15:44.775Z,98509.44
2024-01-11T09:18:13.358Z,98506.00
2024-01-11T09:20:41.826Z,98494.91
2024-01-11T09:23:10.287Z,98488.81
2024-01-11T09:25:38.822Z,98400.56
2024-01-11T09:28:07.544Z,98489.91
2024-01-11T09:30:35.992Z,98491.06
2024-01-11T09:33:07.625Z,98534.63
2024-01-11T09:35:36.274Z,98487.88
2024-01-11T09:38:05.257Z,98508.25
2024-01-11T09:40:33.911Z,98497.63
2024-01-11T09:43:05.982Z,98477.06
2024-01-11T09:45:35.737Z,98498.19
2024-01-11T09:48:06.232Z,98462.78
2024-01-11T09:50:35.419Z,98489.28
2024-01-11T09:53:06.951Z,98487.66
2024-01-11T09:55:37.919Z,98478.34
2024-01-11T09:58:07.271Z,98450.53
2024-01-11T10:00:36.647Z,98465.63
2024-01-11T10:03:07.092Z,98455.38
2024-01-11T10:05:37.980Z,98459.13
2024-01-11T10:08:07.219Z,98453.22
2024-01-11T10:10:36.375Z,98461.75
2024-01-11T10:13:04.854Z,98435.78
2024-01-11T10:15:33.419Z,98462.25
2024-01-11T10:18:02.093Z,98456.25
2024-01-11T10:20:33.587Z,98434.38
2024-01-11T10:23:02.488Z,98458.44
2024-01-11T10:25:31.275Z,98451.69
2024-01-11T10:28:00.945Z,98393.63
2024-01-11T10:30:29.347Z,98436.81
2024-01-11T10:33:00.288Z,98413.44
2024-01-11T10:35:28.878Z,98415.53
2024-01-11T10:38:01.073Z,98410.66
2024-01-11T10:40:30.987Z,98401.28
2024-01-11T10:43:02.796Z,98400.56
2024-01-11T10:45:40.102Z,98398.91
2024-01-11T10:48:14.687Z,98382.41
2024-01-11T10:50:45.902Z,98381.66
2024-01-11T10:53:31.710Z,98394.16
2024-01-11T10:56:01.442Z,98384.84
2024-01-11T10:58:29.906Z,98376.69
2024-01-11T11:01:00.462Z,98340.31
2024-01-11T11:03:29.874Z,98377.09
2024-01-11T11:05:59.372Z,98360.94
2024-01-11T11:08:29.649Z,98322.19
2024-01-11T11:10:59.238Z,98348.66
2024-01-11T11:13:28.534Z,98352.38
2024-01-11T11:16:01.673Z,98308.50
2024-01-11T11:18:31.023Z,98318.41
2024-01-11T11:21:00.154Z,98319.50
2024-01-11T11:23:30.056Z,98299.78
2024-01-11T11:25:59.169Z,98313.78
2024-01-11T11:28:28.918Z,98281.03
2024-01-11T11:30:58.951Z,98290.84
2024-01-11T11:33:27.597Z,98274.63
2024-01-11T11:35:57.563Z,98292.94
2024-01-11T11:38:29.837Z,98281.91
2024-01-11T11:41:00.989Z,98274.34
2024-01-11T11:43:31.370Z,98277.97
2024-01-11T11:46:03.937Z,98283.28
2024-01-11T11:48:52.559Z,98280.16
2024-01-11T11:51:23.177Z,98265.56
2024-01-11T11:53:54.303Z,98264.03
2024-01-11T11:56:25.361Z,98244.97
2024-01-11T11:58:56.520Z,98257.25
2024-01-11T12:01:25.598Z,98254.81
2024-01-11T12:03:55.594Z,98253.22
2024-01-11T12:06:26.713Z,98255.00
2024-01-11T12:08:57.880Z,98245.59
2024-01-11T12:11:28.809Z,98255.16
2024-01-11T12:13:59.197Z,98249.09
2024-01-11T12:16:28.599Z,98256.88
2024-01-11T12:18:57.306Z,98236.13
2024-01-11T12:21:25.856Z,98245.88
2024-01-11T12:23:54.382Z,98239.88
2024-01-11T12:26:24.165Z,98239.03
2024-01-11T12:28:55.049Z,98233.03
2024-01-11T12:31:24.686Z,98181.78
2024-01-11T12:33:53.811Z,98226.75
2024-01-11T12:36:22.728Z,98227.56
2024-01-11T12:38:53.195Z,98219.81
2024-01-11T12:41:24.890Z,98159.06
2024-01-11T12:43:55.311Z,98207.00
2024-01-11T12:46:24.071Z,98191.47
2024-01-11T12:48:53.163Z,98207.94
2024-01-11T12:51:23.095Z,98210.59
2024-01-11T12:53:53.311Z,98210.69
2024-01-11T12:56:23.179Z,98214.22
2024-01-11T12:58:51.937Z,98205.56
2024-01-11T13:01:22.517Z,98217.72
2024-01-11T13:03:51.324Z,98209.94
2024-01-11T13:06:20.886Z,98174.38
2024-01-11T13:08:49.476Z,98217.72
2024-01-11T13:11:18.846Z,98194.31
2024-01-11T13:13:49.058Z,98164.00
2024-01-11T13:16:17.702Z,98189.09
2024-01-11T13:18:47.510Z,98171.47
2024-01-11T13:21:16.016Z,98161.63
2024-01-11T13:23:44.517Z,98175.75
2024-01-11T13:26:13.261Z,98104.03
2024-01-11T13:28:41.962Z,98165.47
2024-01-11T13:31:12.163Z,98157.06
2024-01-11T13:33:42.052Z,98153.28
2024-01-11T13:36:11.964Z,98144.44
2024-01-11T13:38:40.529Z,98139.97
2024-01-11T13:41:09.767Z,98145.53
2024-01-11T13:43:38.588Z,98152.75
2024-01-11T13:46:07.086Z,98153.25
2024-01-11T13:48:35.824Z,98145.09
2024-01-11T13:51:05.546Z,98137.56
2024-01-11T13:53:35.532Z,98134.59
2024-01-11T13:56:04.263Z,98092.56
2024-01-11T13:58:32.793Z,98137.09
2024-01-11T14:01:01.222Z,98144.16
2024-01-11T14:03:29.719Z,98145.81
2024-01-11T14:05:58.345Z,98133.91
2024-01-11T14:08:27.745Z,98145.44
2024-01-11T14:10:57.680Z,98143.31
2024-01-11T14:13:25.991Z,98145.75
2024-01-11T14:15:55.238Z,98154.44
2024-01-11T14:18:25.076Z,98157.69
2024-01-11T14:20:54.790Z,98162.63
2024-01-11T14:23:23.214Z,98158.94
2024-01-11T14:25:51.598Z,98165.66
2024-01-11T14:28:22.032Z,98159.38
2024-01-11T14:30:51.489Z,98082.88
2024-01-11T14:33:21.298Z,98160.91
2024-01-11T14:35:49.809Z,98131.97
2024-01-11T14:38:18.311Z,98147.31
2024-01-11T14:40:46.871Z,98170.47
2024-01-11T14:43:15.900Z,98159.06
2024-01-11T14:45:46.102Z,98179.69
2024-01-11T14:48:14.632Z,98189.00
2024-01-11T14:50:43.089Z,98181.03
2024-01-11T14:53:11.625Z,98173.78
2024-01-11T14:55:40.075Z,98182.41
2024-01-11T14:58:08.420Z,98120.78
2024-01-11T15:00:36.668Z,98192.91
2024-01-11T15:03:06.983Z,98100.72
2024-01-11T15:05:35.315Z,98188.16
2024-01-11T15:08:03.787Z,98188.75
2024-01-11T15:10:32.895Z,98189.63
2024-01-11T15:13:01.235Z,98192.06
2024-01-11T15:15:30.206Z,98093.59
2024-01-11T15:17:58.779Z,98187.00
2024-01-11T15:20:28.684Z,98180.31
2024-01-11T15:22:57.094Z,98105.47
2024-01-11T15:25:27.903Z,98182.56
2024-01-11T15:27:56.511Z,98194.69
2024-01-11T15:30:25.220Z,98194.31
2024-01-11T15:32:53.885Z,98193.97
2024-01-11T15:35:23.011Z,98213.66
2024-01-11T15:37:52.927Z,98226.22
2024-01-11T15:40:21.411Z,98216.75
2024-01-11T15:42:50.500Z,98202.75
2024-01-11T15:45:18.887Z,98214.81
2024-01-11T15:47:47.352Z,98218.06
2024-01-11T15:50:15.763Z,98220.47
2024-01-11T15:52:44.364Z,98188.41
2024-01-11T15:55:14.192Z,98138.22
2024-01-11T15:57:42.526Z,98224.00
2024-01-11T16:00:12.899Z,98217.91
2024-01-11T16:02:43.080Z,98211.69
2024-01-11T16:05:12.393Z,98216.72
2024-01-11T16:07:41.339Z,98215.59
2024-01-11T16:10:11.073Z,98176.31
2024-01-11T16:12:40.873Z,98219.72
2024-01-11T16:15:11.083Z,98218.81
2024-01-11T16:17:39.526Z,98180.31
2024-01-11T16:20:09.429Z,98205.38
2024-01-11T16:22:38.279Z,98209.06
2024-01-11T16:25:07.274Z,98195.25
2024-01-11T16:27:35.620Z,98209.75
2024-01-11T16:30:06.832Z,98220.78
2024-01-11T16:32:35.488Z,98224.91
2024-01-11T16:35:03.896Z,98221.28
2024-01-11T16:37:32.888Z,98222.06
2024-01-11T16:40:01.156Z,98232.22
2024-01-11T16:42:29.739Z,98227.84
2024-01-11T16:44:58.253Z,98185.50
2024-01-11T16:47:28.207Z,98211.31
2024-01-11T16:49:56.607Z,98229.44
2024-01-11T16:52:24.924Z,98217.44
2024-01-11T16:54:53.453Z,98222.59
2024-01-11T16:57:21.857Z,98226.69
2024-01-11T16:59:50.707Z,98221.41
2024-01-11T17:02:19.539Z,98221.16
2024-01-11T17:04:49.666Z,98222.94
2024-01-11T17:07:18.227Z,98226.31
2024-01-11T17:09:46.911Z,98226.47
2024-01-11T17:12:15.422Z,98231.28
2024-01-11T17:14:44.061Z,98239.84
2024-01-11T17:17:12.822Z,98227.75
2024-01-11T17:19:41.349Z,98227.69
2024-01-11T17:22:11.093Z,98220.75
2024-01-11T17:24:39.701Z,98214.25
2024-01-11T17:27:09.636Z,98217.50
2024-01-11T17:29:39.993Z,98230.28
2024-01-11T17:32:08.987Z,98236.06
2024-01-11T17:34:37.522Z,98237.72
2024-01-11T17:37:06.174Z,98230.13
2024-01-11T17:39:36.697Z,98229.97
2024-01-11T17:42:05.237Z,98227.25
2024-01-11T17:44:33.759Z,98229.25
2024-01-11T17:47:02.083Z,98225.53
2024-01-11T17:49:30.450Z,98211.59
2024-01-11T17:51:58.897Z,98229.06
2024-01-11T17:54:27.430Z,98228.19
2024-01-11T17:56:57.692Z,98235.09
2024-01-11T17:59:26.072Z,98225.63
2024-01-11T18:01:54.501Z,98157.75
2024-01-11T18:04:24.112Z,98177.66
2024-01-11T18:06:52.995Z,98208.84
2024-01-11T18:09:21.394Z,98142.66
2024-01-11T18:11:50.346Z,98215.00
2024-01-11T18:14:20.664Z,98204.47
2024-01-11T18:16:49.089Z,98216.59
2024-01-11T18:19:17.637Z,98166.72
2024-01-11T18:21:46.160Z,98212.31
2024-01-11T18:24:15.248Z,98205.38
2024-01-11T18:26:43.694Z,98210.72
2024-01-11T18:29:12.152Z,98210.72
2024-01-11T18:31:42.145Z,98207.19
2024-01-11T18:34:10.556Z,98143.91
2024-01-11T18:36:45.774Z,98203.53
2024-01-11T18:39:14.346Z,98211.31
2024-01-11T18:41:42.934Z,98212.31
2024-01-11T18:44:12.284Z,98210.56
2024-01-11T18:46:42.431Z,98200.66
2024-01-11T18:49:13.601Z,98194.66
2024-01-11T18:51:42.271Z,98209.66
2024-01-11T18:54:11.090Z,98216.38
2024-01-11T18:56:39.727Z,98226.81
2024-01-11T18:59:09.110Z,98211.78
2024-01-11T19:01:38.170Z,98232.03
2024-01-11T19:04:11.743Z,98222.81
2024-01-11T19:06:42.123Z,98227.59
2024-01-11T19:09:11.978Z,98198.72
2024-01-11T19:11:40.789Z,98200.34
2024-01-11T19:14:11.105Z,98233.44
2024-01-11T19:16:43.965Z,98236.06
2024-01-11T19:19:54.521Z,98231.25
2024-01-11T19:22:43.111Z,98234.78
2024-01-11T19:25:20.712Z,98235.53
2024-01-11T19:27:50.311Z,98204.25
2024-01-11T19:30:22.957Z,98148.34
2024-01-11T19:32:52.248Z,98232.03
2024-01-11T19:35:22.922Z,98232.16
2024-01-11T19:37:51.872Z,98203.03
2024-01-11T19:40:20.753Z,98218.13
2024-01-11T19:43:14.660Z,98222.34
2024-01-11T19:45:44.902Z,98127.47
2024-01-11T19:48:14.490Z,98206.69
2024-01-11T19:50:44.862Z,98196.56
2024-01-11T19:53:13.267Z,98190.66
2024-01-11T19:55:43.241Z,97954.72
2024-01-11T19:58:13.186Z,98182.13
2024-01-11T20:00:42.830Z,98183.00
2024-01-11T20:03:11.388Z,98176.94
2024-01-11T20:05:40.617Z,98182.00
2024-01-11T20:08:14.634Z,98184.66
2024-01-11T20:10:45.047Z,98154.22
2024-01-11T20:13:14.184Z,98167.03
2024-01-11T20:18:36.752Z,98169.25
2024-01-11T20:21:11.925Z,98172.03
2024-01-11T20:23:45.276Z,98153.91
2024-01-11T20:26:15.093Z,98124.03
2024-01-11T20:28:44.002Z,98157.00
2024-01-11T20:31:13.381Z,98153.66
2024-01-11T20:33:42.248Z,98148.50
2024-01-11T20:36:11.494Z,98064.22
2024-01-11T20:38:41.537Z,98152.84
2024-01-11T20:41:11.234Z,98158.88
2024-01-11T20:43:41.702Z,98150.47
2024-01-11T20:46:10.317Z,98122.03
2024-01-11T20:48:40.198Z,98136.28
2024-01-11T20:51:10.947Z,98138.06
2024-01-11T20:53:39.347Z,98132.03
2024-01-11T20:56:09.652Z,98124.94
2024-01-11T20:58:38.421Z,98126.72
2024-01-11T21:01:07.025Z,98132.66
2024-01-11T21:03:36.126Z,98121.19
2024-01-11T21:06:05.782Z,98101.47
2024-01-11T21:08:35.652Z,98099.53
2024-01-11T21:11:04.505Z,98136.16
2024-01-11T21:13:34.771Z,98142.41
2024-01-11T21:16:04.236Z,98146.63
2024-01-11T21:18:34.917Z,98141.50
2024-01-11T21:21:03.809Z,98126.59
2024-01-11T21:23:32.452Z,98161.38
2024-01-11T21:26:00.886Z,98166.72
2024-01-11T21:28:29.989Z,98169.22
2024-01-11T21:31:00.277Z,98156.94
2024-01-11T21:33:29.031Z,98158.75
2024-01-11T21:35:57.467Z,98156.09
2024-01-11T21:38:25.903Z,98149.31
2024-01-11T21:40:54.287Z,98151.09
2024-01-11T21:43:22.685Z,98157.84
2024-01-11T21:45:51.220Z,98152.53
2024-01-11T21:48:21.197Z,98163.69
2024-01-11T21:50:50.507Z,98151.34
2024-01-11T21:53:18.935Z,98174.13
2024-01-11T21:55:47.284Z,98176.66
2024-01-11T21:58:19.491Z,98178.56
2024-01-11T22:00:47.967Z,98188.69
2024-01-11T22:03:16.555Z,98190.47
2024-01-11T22:05:46.513Z,98198.19
2024-01-11T22:08:32.477Z,98173.81
2024-01-11T22:11:01.115Z,98180.88
2024-01-11T22:13:29.579Z,98191.91
2024-01-11T22:15:58.781Z,98201.06
2024-01-11T22:18:27.519Z,98174.13
2024-01-11T22:20:58.529Z,98200.34
2024-01-11T22:23:27.512Z,98169.13
2024-01-11T22:25:56.155Z,98200.47
2024-01-11T22:28:24.473Z,98189.13
2024-01-11T22:30:53.087Z,98214.63
2024-01-11T22:33:21.582Z,98210.19
2024-01-11T22:35:50.136Z,98182.19
2024-01-11T22:38:19.925Z,98201.19
2024-01-11T22:40:49.052Z,98209.03
2024-01-11T22:43:17.372Z,98201.44
2024-01-11T22:45:45.739Z,98192.09
2024-01-11T22:48:14.431Z,98187.78
2024-01-11T22:50:42.997Z,98120.59
2024-01-11T22:53:11.479Z,98186.81
2024-01-11T22:55:41.305Z,98196.41
2024-01-11T22:58:09.605Z,98194.66
2024-01-11T23:00:39.248Z,98193.81
2024-01-11T23:03:07.720Z,98199.78
2024-01-11T23:05:36.336Z,98190.38
2024-01-11T23:08:04.991Z,98180.06
2024-01-11T23:10:36.525Z,98182.50
2024-01-11T23:13:07.114Z,98193.75
2024-01-11T23:15:35.463Z,98168.19
2024-01-11T23:18:03.912Z,98191.09
2024-01-11T23:20:32.820Z,98188.75
2024-01-11T23:23:01.336Z,98192.44
2024-01-11T23:25:33.998Z,98189.66
2024-01-11T23:28:02.680Z,98193.66
2024-01-11T23:30:35.441Z,98193.16
2024-01-11T23:33:04.063Z,98191.09
2024-01-11T23:35:32.460Z,98182.44
2024-01-11T23:38:00.736Z,98188.50
2024-01-11T23:40:29.137Z,98180.72
2024-01-11T23:42:57.519Z,98184.97
2024-01-11T23:45:25.840Z,98187.44
2024-01-11T23:47:55.772Z,98184.75
2024-01-11T23:50:24.263Z,98191.69
2024-01-11T23:52:52.663Z,98193.25
2024-01-11T23:55:21.088Z,98173.03
2024-01-11T23:57:49.473Z,98190.75
